Time;durP1;ratioP1;P1;durP2;ratioP2;P2;SDS_P1;SDS_P2;PMS_P1;PMS_P2;Temp;Humidity;BMP_temperature;BMP_pressure;BME280_temperature;BME280_humidity;BME280_pressure;Samples;Min_cycle;Max_cycle;Signal;HPM_P1;HPM_P2
2023/09/29 00:00:35;;;;;;;5.53;3.70;;;16.70;98.60;;;;;;4982640;28;20452;-72
2023/09/29 00:03:01;;;;;;;8.90;3.70;;;16.60;98.70;;;;;;4968681;28;20478;-73
2023/09/29 00:05:27;;;;;;;7.03;3.60;;;16.60;98.90;;;;;;4968275;28;20026;-72
2023/09/29 00:07:56;;;;;;;5.53;2.40;;;16.50;99.00;;;;;;4970058;28;20505;-72
2023/09/29 00:10:25;;;;;;;5.18;2.65;;;16.40;99.10;;;;;;4978824;28;20037;-73
2023/09/29 00:12:51;;;;;;;5.40;2.58;;;16.40;99.20;;;;;;4981209;28;20034;-73
2023/09/29 00:15:18;;;;;;;4.55;2.83;;;16.40;99.20;;;;;;4969553;28;20049;-73
2023/09/29 00:17:45;;;;;;;4.30;2.35;;;16.40;99.20;;;;;;4968173;28;20418;-73
2023/09/29 00:20:25;;;;;;;7.70;2.97;;;16.40;99.30;;;;;;4968225;28;20027;-71
2023/09/29 00:22:55;;;;;;;5.90;2.90;;;16.30;99.40;;;;;;4983055;28;20126;-72
2023/09/29 00:25:24;;;;;;;5.95;3.13;;;16.30;99.50;;;;;;4969974;28;20393;-72
2023/09/29 00:27:57;;;;;;;5.78;2.97;;;16.30;99.70;;;;;;4968797;28;20528;-72
2023/09/29 00:30:23;;;;;;;3.70;2.28;;;16.20;99.80;;;;;;4981975;28;20065;-73
2023/09/29 00:32:55;;;;;;;8.02;1.95;;;16.20;99.90;;;;;;4966241;28;20395;-72
2023/09/29 00:35:24;;;;;;;;;;;;;;;;;;;;;
2023/09/29 00:37:57;;;;;;;5.07;2.53;;;16.10;99.90;;;;;;4971828;28;20050;-73
2023/09/29 00:40:23;;;;;;;8.05;2.22;;;16.10;99.90;;;;;;4972425;28;20102;-72
2023/09/29 00:42:53;;;;;;;4.60;2.22;;;16.10;99.90;;;;;;4970497;28;20481;-73
2023/09/29 00:45:22;;;;;;;8.13;2.88;;;16.10;99.90;;;;;;4969318;28;20035;-72
2023/09/29 00:47:55;;;;;;;4.38;2.17;;;16.10;99.90;;;;;;4972139;28;20031;-73
2023/09/29 00:50:29;;;;;;;5.97;2.90;;;16.10;99.90;;;;;;4971459;28;20035;-72
2023/09/29 00:52:58;;;;;;;4.30;2.50;;;16.10;99.90;;;;;;4970372;28;20191;-72
2023/09/29 00:55:29;;;;;;;5.35;2.58;;;16.10;99.80;;;;;;4970817;28;20083;-73
2023/09/29 00:57:59;;;;;;;5.10;2.67;;;16.10;99.80;;;;;;4973110;28;20046;-72
2023/09/29 01:03:04;;;;;;;3.80;2.08;;;16.10;99.70;;;;;;4972074;28;20027;-73
2023/09/29 01:05:32;;;;;;;6.05;2.65;;;16.10;99.70;;;;;;4984882;28;20159;-74
2023/09/29 01:07:58;;;;;;;5.63;2.58;;;16.10;99.80;;;;;;4967481;28;20029;-73
2023/09/29 01:10:24;;;;;;;4.10;2.10;;;16.10;99.90;;;;;;4973996;28;20118;-73
2023/09/29 01:12:53;;;;;;;2.75;2.00;;;16.00;99.90;;;;;;4968900;28;20046;-73
2023/09/29 01:15:22;;;;;;;4.50;2.22;;;16.00;99.90;;;;;;4966668;28;20037;-73
2023/09/29 01:17:56;;;;;;;4.72;2.10;;;15.90;99.90;;;;;;4968528;28;20053;-73
2023/09/29 01:20:28;;;;;;;3.90;2.30;;;15.90;99.90;;;;;;4972308;28;20031;-73
2023/09/29 01:22:55;;;;;;;4.07;2.50;;;15.80;99.90;;;;;;4987684;28;20027;-73
2023/09/29 01:25:21;;;;;;;5.88;2.65;;;15.70;99.90;;;;;;4971365;28;20050;-73
2023/09/29 01:27:50;;;;;;;4.28;2.40;;;15.70;99.90;;;;;;4970257;28;20065;-73
2023/09/29 01:30:27;;;;;;;5.72;2.13;;;15.70;99.90;;;;;;4970723;28;20023;-73
2023/09/29 01:32:59;;;;;;;4.57;2.50;;;15.60;99.90;;;;;;4972610;28;20458;-73
2023/09/29 01:35:25;;;;;;;5.57;2.90;;;15.60;99.90;;;;;;4983560;28;20046;-73
2023/09/29 01:37:53;;;;;;;6.45;2.88;;;15.60;99.90;;;;;;4971488;28;20045;-73
2023/09/29 01:40:22;;;;;;;6.07;2.97;;;15.50;99.90;;;;;;4972680;28;20030;-73
2023/09/29 01:42:52;;;;;;;4.88;2.70;;;15.50;99.90;;;;;;4970688;28;20520;-73
2023/09/29 01:45:19;;;;;;;4.95;3.00;;;15.40;99.90;;;;;;4972469;28;20030;-73
2023/09/29 01:47:46;;;;;;;5.05;2.60;;;15.40;99.90;;;;;;4969329;28;20031;-72
2023/09/29 01:50:20;;;;;;;5.93;3.13;;;15.40;99.90;;;;;;4972050;28;20033;-72
2023/09/29 01:52:48;;;;;;;4.85;3.00;;;15.30;99.90;;;;;;4974823;28;20489;-72
2023/09/29 01:55:24;;;;;;;7.88;3.05;;;15.30;99.90;;;;;;4970135;28;20094;-72
2023/09/29 01:57:53;;;;;;;5.20;2.58;;;15.30;99.90;;;;;;4972003;28;20027;-72
2023/09/29 02:00:23;;;;;;;6.30;3.30;;;15.30;99.90;;;;;;4972863;28;20061;-72
2023/09/29 02:02:51;;;;;;;4.30;2.58;;;15.20;99.90;;;;;;4971783;28;20023;-72
2023/09/29 02:05:23;;;;;;;3.70;2.50;;;15.20;99.90;;;;;;4971876;28;20477;-72
2023/09/29 02:07:52;;;;;;;4.35;2.75;;;15.20;99.90;;;;;;4970858;28;20432;-73
2023/09/29 02:10:20;;;;;;;3.97;2.40;;;15.10;99.90;;;;;;4972164;28;20076;-71
2023/09/29 02:12:54;;;;;;;4.07;2.17;;;15.20;99.90;;;;;;4973246;28;20023;-72
2023/09/29 02:15:28;;;;;;;5.07;2.65;;;15.20;99.90;;;;;;4972149;28;20039;-74
2023/09/29 02:17:58;;;;;;;5.72;2.58;;;15.10;99.90;;;;;;4988094;28;20117;-74
2023/09/29 02:20:30;;;;;;;4.97;2.60;;;15.10;99.90;;;;;;4970777;28;20050;-72
2023/09/29 02:23:16;;;;;;;3.70;2.30;;;15.10;99.90;;;;;;4974155;28;20027;-73
2023/09/29 02:25:46;;;;;;;4.47;2.55;;;15.00;99.90;;;;;;4970043;28;20030;-75
2023/09/29 02:28:14;;;;;;;8.07;2.40;;;15.00;99.90;;;;;;4973489;28;20045;-76
2023/09/29 02:30:41;;;;;;;6.88;2.58;;;14.90;99.90;;;;;;4989633;28;20050;-78
2023/09/29 02:33:09;;;;;;;4.43;2.45;;;14.90;99.90;;;;;;4973433;28;20052;-77
2023/09/29 02:35:35;;;;;;;4.25;2.33;;;14.90;99.90;;;;;;4970719;28;20389;-74
2023/09/29 02:38:03;;;;;;;3.85;2.60;;;14.90;99.90;;;;;;4965989;28;20038;-73
2023/09/29 02:40:28;;;;;;;5.45;2.42;;;14.80;99.90;;;;;;4971940;28;20385;-75
2023/09/29 02:42:54;;;;;;;4.43;2.47;;;14.80;99.90;;;;;;4973343;28;20022;-74
2023/09/29 02:45:26;;;;;;;7.25;3.55;;;14.80;99.90;;;;;;4972844;28;20536;-75
2023/09/29 02:47:56;;;;;;;7.22;3.53;;;14.80;99.90;;;;;;4970667;28;20066;-77
2023/09/29 02:50:21;;;;;;;5.45;2.67;;;14.70;99.90;;;;;;4973904;28;20094;-77
2023/09/29 02:52:48;;;;;;;5.75;3.08;;;14.70;99.90;;;;;;4973690;28;20055;-72
2023/09/29 02:55:14;;;;;;;8.15;2.80;;;14.70;99.90;;;;;;4971689;28;20102;-71
2023/09/29 02:57:43;;;;;;;6.70;2.60;;;14.70;99.90;;;;;;4969397;28;20083;-72
2023/09/29 03:00:21;;;;;;;4.32;2.42;;;14.70;99.90;;;;;;4970937;28;20031;-71
2023/09/29 03:02:48;;;;;;;5.95;3.42;;;14.70;99.90;;;;;;4973018;28;20150;-71
2023/09/29 03:05:21;;;;;;;5.63;2.78;;;14.70;99.90;;;;;;4971851;28;20030;-72
2023/09/29 03:07:56;;;;;;;4.47;2.88;;;14.70;99.90;;;;;;4972687;28;20180;-72
2023/09/29 03:10:25;;;;;;;3.78;2.70;;;14.70;99.90;;;;;;4969780;28;20050;-72
2023/09/29 03:12:51;;;;;;;6.45;3.42;;;14.70;99.90;;;;;;4970358;28;20026;-72
2023/09/29 03:15:17;;;;;;;5.30;3.20;;;14.70;99.90;;;;;;4971961;28;20050;-72
2023/09/29 03:17:46;;;;;;;7.63;2.42;;;14.70;99.90;;;;;;4970211;28;20023;-72
2023/09/29 03:20:16;;;;;;;7.22;2.85;;;14.70;99.90;;;;;;4986257;28;20027;-72
2023/09/29 03:22:45;;;;;;;4.38;2.40;;;14.70;99.90;;;;;;4970632;28;20030;-72
2023/09/29 03:25:18;;;;;;;6.05;2.88;;;14.70;99.90;;;;;;4971231;28;20162;-72
2023/09/29 03:27:47;;;;;;;6.53;4.07;;;14.70;99.90;;;;;;4967625;28;20883;-72
2023/09/29 03:30:16;;;;;;;6.05;3.80;;;14.60;99.90;;;;;;4971670;28;20033;-72
2023/09/29 03:32:43;;;;;;;7.07;3.42;;;14.60;99.90;;;;;;4969071;28;20031;-72
2023/09/29 03:35:09;;;;;;;7.50;4.60;;;14.60;99.90;;;;;;4970904;28;20035;-72
2023/09/29 03:37:39;;;;;;;7.93;5.93;;;14.60;99.90;;;;;;4966266;28;20518;-73
2023/09/29 03:40:09;;;;;;;8.32;5.78;;;14.50;99.90;;;;;;4980785;28;20078;-73
2023/09/29 03:42:36;;;;;;;9.00;4.80;;;14.50;99.90;;;;;;4969885;28;20106;-73
2023/09/29 03:45:09;;;;;;;6.78;4.90;;;14.50;99.90;;;;;;4969021;28;20098;-73
2023/09/29 03:47:34;;;;;;;8.07;5.18;;;14.40;99.90;;;;;;4969893;28;20577;-72
2023/09/29 03:50:01;;;;;;;10.02;4.80;;;14.40;99.90;;;;;;4967908;28;20126;-73
2023/09/29 03:52:27;;;;;;;7.10;5.00;;;14.30;99.90;;;;;;4970326;28;20058;-72
2023/09/29 03:54:57;;;;;;;10.13;5.03;;;14.30;99.90;;;;;;4973721;28;20089;-73
2023/09/29 03:57:25;;;;;;;6.05;4.22;;;14.30;99.90;;;;;;4970408;28;20042;-73
2023/09/29 03:59:52;;;;;;;6.32;4.15;;;14.20;99.90;;;;;;4971156;28;20090;-73
2023/09/29 04:02:18;;;;;;;9.95;4.28;;;14.20;99.90;;;;;;4965090;28;20381;-72
2023/09/29 04:04:43;;;;;;;5.68;3.72;;;14.20;99.90;;;;;;4969877;28;20028;-72
2023/09/29 04:07:11;;;;;;;6.35;3.97;;;14.10;99.90;;;;;;4971363;28;20055;-73
2023/09/29 04:09:37;;;;;;;6.30;3.25;;;14.10;99.90;;;;;;4975201;28;20030;-73
2023/09/29 04:12:06;;;;;;;5.93;3.00;;;14.10;99.90;;;;;;4975658;28;20406;-73
2023/09/29 04:14:31;;;;;;;5.15;2.95;;;14.10;99.90;;;;;;4971362;28;20035;-71
2023/09/29 04:16:57;;;;;;;7.28;3.28;;;14.00;99.90;;;;;;4970324;28;20536;-72
2023/09/29 04:19:22;;;;;;;5.43;2.83;;;14.00;99.90;;;;;;4975544;28;20493;-72
2023/09/29 04:21:48;;;;;;;6.72;2.80;;;14.00;99.90;;;;;;4974406;28;20027;-72
2023/09/29 04:24:17;;;;;;;6.32;2.60;;;14.00;99.90;;;;;;4974253;28;20022;-72
2023/09/29 04:26:45;;;;;;;7.45;2.85;;;14.00;99.90;;;;;;4970679;28;20031;-73
2023/09/29 04:29:11;;;;;;;5.47;3.05;;;14.00;99.90;;;;;;4973691;28;20066;-72
2023/09/29 04:31:36;;;;;;;5.40;2.80;;;14.00;99.90;;;;;;4974820;28;20440;-71
2023/09/29 04:34:05;;;;;;;6.07;2.63;;;13.90;99.90;;;;;;4971918;28;20023;-72
2023/09/29 04:36:30;;;;;;;5.30;3.08;;;13.90;99.90;;;;;;4969666;28;20026;-73
2023/09/29 04:38:56;;;;;;;5.05;3.10;;;13.90;99.90;;;;;;4988582;28;20089;-73
2023/09/29 04:41:23;;;;;;;6.45;3.15;;;13.90;99.90;;;;;;4973267;28;20516;-74
2023/09/29 04:43:50;;;;;;;7.15;3.53;;;13.90;99.90;;;;;;4973216;28;20019;-74
2023/09/29 04:46:16;;;;;;;7.70;3.40;;;13.90;99.90;;;;;;4971213;28;20457;-75
2023/09/29 04:48:41;;;;;;;5.88;2.97;;;13.90;99.90;;;;;;4973797;28;20088;-72
2023/09/29 04:51:07;;;;;;;6.15;3.30;;;13.90;99.90;;;;;;4974208;28;20110;-71
2023/09/29 04:53:35;;;;;;;4.78;3.00;;;13.80;99.90;;;;;;4971756;28;20048;-72
2023/09/29 04:56:01;;;;;;;6.53;3.55;;;13.80;99.90;;;;;;4974249;28;20019;-72
2023/09/29 04:58:29;;;;;;;5.93;3.13;;;13.80;99.90;;;;;;4974647;28;20049;-72
2023/09/29 05:00:55;;;;;;;5.18;3.25;;;13.80;99.90;;;;;;4971157;28;20510;-72
2023/09/29 05:03:21;;;;;;;8.73;3.75;;;13.80;99.90;;;;;;4971807;28;20120;-72
2023/09/29 05:05:46;;;;;;;4.78;2.60;;;13.80;99.90;;;;;;4973403;28;20026;-72
2023/09/29 05:08:14;;;;;;;5.90;2.58;;;13.70;99.90;;;;;;4971411;28;20033;-72
2023/09/29 05:10:40;;;;;;;6.68;3.13;;;13.70;99.90;;;;;;4969337;28;20034;-72
2023/09/29 05:13:07;;;;;;;5.95;3.10;;;13.70;99.90;;;;;;4973511;28;20023;-72
2023/09/29 05:15:36;;;;;;;6.35;3.35;;;13.70;99.90;;;;;;4975294;28;20026;-72
2023/09/29 05:18:03;;;;;;;8.00;2.78;;;13.70;99.90;;;;;;4988653;28;20033;-72
2023/09/29 05:20:31;;;;;;;6.65;3.33;;;13.70;99.90;;;;;;4973107;28;20027;-71
2023/09/29 05:22:57;;;;;;;5.53;3.28;;;13.70;99.90;;;;;;4973741;28;20034;-71
2023/09/29 05:25:23;;;;;;;7.35;3.30;;;13.70;99.90;;;;;;4973820;28;20410;-71
2023/09/29 05:27:48;;;;;;;15.02;4.07;;;13.70;99.90;;;;;;4988181;28;20030;-71
2023/09/29 05:30:19;;;;;;;7.68;3.72;;;13.70;99.90;;;;;;4972445;28;20057;-72
2023/09/29 05:32:47;;;;;;;6.32;3.47;;;13.70;99.90;;;;;;4972999;28;20022;-71
2023/09/29 05:35:13;;;;;;;6.88;3.55;;;13.70;99.90;;;;;;4972827;28;20019;-71
2023/09/29 05:37:38;;;;;;;6.75;4.07;;;13.70;99.90;;;;;;4971361;28;20089;-71
2023/09/29 05:40:11;;;;;;;7.60;3.70;;;13.70;99.90;;;;;;4971325;28;20015;-72
2023/09/29 05:42:36;;;;;;;7.68;3.53;;;13.70;99.90;;;;;;4987926;28;20031;-71
2023/09/29 05:45:02;;;;;;;8.80;3.30;;;13.70;99.90;;;;;;4970565;28;20417;-71
2023/09/29 05:47:31;;;;;;;9.77;4.45;;;13.70;99.90;;;;;;4974054;28;20049;-72
2023/09/29 05:49:56;;;;;;;6.32;3.53;;;13.80;99.90;;;;;;4972918;28;20161;-72
2023/09/29 05:52:22;;;;;;;11.02;4.30;;;13.70;99.90;;;;;;4973025;28;20105;-72
2023/09/29 05:54:48;;;;;;;6.45;3.65;;;13.80;99.90;;;;;;4971706;28;20023;-72
2023/09/29 05:57:14;;;;;;;8.88;4.80;;;13.80;99.90;;;;;;4967097;28;20102;-72
2023/09/29 05:59:39;;;;;;;8.93;4.05;;;13.90;99.90;;;;;;4972890;28;20118;-72
2023/09/29 06:02:14;;;;;;;12.30;4.35;;;13.90;99.90;;;;;;4971317;28;20027;-72
2023/09/29 06:04:39;;;;;;;8.38;4.03;;;14.00;99.90;;;;;;4972955;28;20027;-72
2023/09/29 06:07:09;;;;;;;10.75;4.55;;;14.00;99.90;;;;;;4973742;28;20617;-72
2023/09/29 06:09:35;;;;;;;8.98;4.05;;;14.00;99.90;;;;;;4972899;28;20018;-72
2023/09/29 06:12:00;;;;;;;10.07;4.65;;;14.10;99.90;;;;;;4971133;28;20041;-72
2023/09/29 06:14:27;;;;;;;9.40;4.35;;;14.20;99.90;;;;;;4967740;28;20029;-72
2023/09/29 06:16:56;;;;;;;10.18;3.90;;;14.20;99.90;;;;;;4972741;28;20552;-72
2023/09/29 06:19:28;;;;;;;9.55;3.85;;;14.30;99.90;;;;;;4969402;28;20089;-72
2023/09/29 06:21:56;;;;;;;12.38;4.25;;;14.30;99.90;;;;;;4971798;28;20037;-73
2023/09/29 06:24:22;;;;;;;12.02;3.90;;;14.40;99.90;;;;;;4972292;28;20030;-74
2023/09/29 06:26:47;;;;;;;7.68;4.13;;;14.40;99.90;;;;;;4972991;28;20030;-73
2023/09/29 06:29:13;;;;;;;11.27;4.40;;;14.50;99.90;;;;;;4987509;28;20027;-72
2023/09/29 06:31:39;;;;;;;10.13;4.07;;;14.50;99.90;;;;;;4972146;28;20046;-72
2023/09/29 06:34:07;;;;;;;9.48;4.40;;;14.60;99.90;;;;;;4972283;28;20154;-72
2023/09/29 06:36:36;;;;;;;9.68;4.30;;;14.70;99.90;;;;;;4969806;28;20043;-72
2023/09/29 06:39:01;;;;;;;11.75;4.72;;;14.70;99.90;;;;;;4964772;28;20038;-72
2023/09/29 06:41:27;;;;;;;9.88;4.45;;;14.80;99.90;;;;;;4971655;28;20039;-72
2023/09/29 06:43:53;;;;;;;9.73;4.07;;;14.90;99.90;;;;;;4968531;28;20106;-73
2023/09/29 06:46:18;;;;;;;10.77;4.65;;;15.00;99.90;;;;;;4967323;28;20030;-73
2023/09/29 06:48:47;;;;;;;11.77;4.32;;;15.10;99.90;;;;;;4969503;28;20121;-73
2023/09/29 06:51:14;;;;;;;13.20;5.20;;;15.20;99.90;;;;;;4954468;28;20114;-72
2023/09/29 06:53:40;;;;;;;9.73;4.45;;;15.30;99.90;;;;;;4987667;28;20125;-72
2023/09/29 06:56:06;;;;;;;12.45;4.53;;;15.40;99.90;;;;;;4971201;28;20109;-72
2023/09/29 06:58:34;;;;;;;11.10;4.13;;;15.50;99.90;;;;;;4968672;28;20026;-72
2023/09/29 07:01:00;;;;;;;8.70;3.83;;;15.60;99.90;;;;;;4963395;28;20489;-73
2023/09/29 07:03:29;;;;;;;5.57;3.22;;;15.70;99.90;;;;;;4969019;28;20033;-73
2023/09/29 07:05:56;;;;;;;11.75;3.60;;;15.80;99.90;;;;;;4969545;28;20382;-73
2023/09/29 07:08:21;;;;;;;7.65;4.13;;;15.90;99.90;;;;;;4967205;28;20088;-73
2023/09/29 07:10:57;;;;;;;7.10;3.47;;;16.00;99.90;;;;;;4968390;28;20508;-73
2023/09/29 07:13:25;;;;;;;6.72;3.13;;;16.10;99.90;;;;;;4971510;28;20398;-72
2023/09/29 07:15:51;;;;;;;5.95;3.88;;;16.10;99.90;;;;;;4969411;28;20030;-73
2023/09/29 07:18:17;;;;;;;9.82;4.10;;;16.20;99.90;;;;;;4966055;28;20035;-73
2023/09/29 07:20:43;;;;;;;15.20;3.85;;;16.20;99.90;;;;;;4971049;28;20389;-73
2023/09/29 07:23:12;;;;;;;9.05;4.20;;;16.30;99.90;;;;;;4970068;28;20027;-72
2023/09/29 07:25:39;;;;;;;8.63;3.78;;;16.40;99.90;;;;;;4973705;28;20117;-73
2023/09/29 07:28:16;;;;;;;10.93;4.13;;;16.50;99.90;;;;;;4968609;28;20027;-73
2023/09/29 07:30:45;;;;;;;10.82;4.88;;;16.50;99.90;;;;;;4968575;28;20023;-73
2023/09/29 07:33:11;;;;;;;11.75;4.65;;;16.60;99.90;;;;;;4984545;28;20034;-73
2023/09/29 07:35:44;;;;;;;9.27;4.25;;;16.70;99.90;;;;;;4984554;28;20043;-73
2023/09/29 07:38:10;;;;;;;10.95;4.20;;;16.70;99.90;;;;;;4970382;28;20055;-73
2023/09/29 07:40:35;;;;;;;10.00;4.38;;;16.80;99.90;;;;;;4971415;28;20043;-73
2023/09/29 07:43:05;;;;;;;8.63;4.18;;;16.80;99.90;;;;;;4972605;28;20026;-73
2023/09/29 07:45:32;;;;;;;10.02;4.68;;;16.90;99.90;;;;;;4990252;28;20539;-73
2023/09/29 07:48:01;;;;;;;9.90;4.53;;;17.00;99.90;;;;;;4974254;28;20089;-73
2023/09/29 07:50:28;;;;;;;7.57;3.60;;;17.10;99.90;;;;;;4974415;28;20108;-73
2023/09/29 07:52:53;;;;;;;10.15;4.07;;;17.20;99.90;;;;;;4973377;28;20035;-73
2023/09/29 07:55:19;;;;;;;8.65;4.57;;;17.30;99.90;;;;;;4991127;28;20041;-73
2023/09/29 07:57:45;;;;;;;8.23;4.20;;;17.40;99.90;;;;;;4974044;28;20027;-73
2023/09/29 08:00:15;;;;;;;9.00;4.13;;;17.40;99.90;;;;;;4974252;28;20454;-73
2023/09/29 08:02:47;;;;;;;12.52;3.78;;;17.50;99.90;;;;;;4988314;28;20077;-73
2023/09/29 08:05:17;;;;;;;9.38;4.65;;;17.60;99.90;;;;;;4972427;28;20054;-72
2023/09/29 08:07:42;;;;;;;9.18;3.80;;;17.70;99.90;;;;;;4972903;28;20039;-72
2023/09/29 08:10:12;;;;;;;9.55;3.72;;;17.80;99.90;;;;;;4986704;28;20023;-73
2023/09/29 08:12:40;;;;;;;8.63;3.38;;;17.90;99.90;;;;;;4973984;28;20523;-73
2023/09/29 08:15:10;;;;;;;9.43;3.78;;;18.00;99.90;;;;;;4973057;28;20054;-72
2023/09/29 08:17:36;;;;;;;8.57;3.92;;;18.10;99.90;;;;;;4971597;28;20119;-73
2023/09/29 08:20:12;;;;;;;8.02;4.07;;;18.10;99.90;;;;;;4973154;28;20094;-73
2023/09/29 08:22:38;;;;;;;11.48;4.57;;;18.20;99.90;;;;;;4968201;28;20041;-73
2023/09/29 08:25:10;;;;;;;10.40;4.65;;;18.20;99.90;;;;;;4972312;28;20791;-73
2023/09/29 08:27:38;;;;;;;10.85;4.57;;;18.30;99.90;;;;;;4972420;28;20048;-73
2023/09/29 08:30:06;;;;;;;7.55;3.83;;;18.40;99.90;;;;;;4970732;28;20029;-73
2023/09/29 08:32:32;;;;;;;9.50;4.15;;;18.40;99.90;;;;;;4972029;28;20466;-73
2023/09/29 08:34:58;;;;;;;9.65;4.60;;;18.40;99.90;;;;;;4973221;28;20141;-73
2023/09/29 08:37:27;;;;;;;9.40;3.90;;;18.50;99.90;;;;;;4969857;28;20023;-73
2023/09/29 08:39:58;;;;;;;6.00;3.35;;;18.50;99.90;;;;;;4966479;28;20027;-73
2023/09/29 08:42:35;;;;;;;7.63;2.95;;;18.70;99.90;;;;;;4986221;28;20161;-73
2023/09/29 08:45:03;;;;;;;6.50;3.03;;;18.80;99.90;;;;;;4971642;28;20073;-73
2023/09/29 08:47:30;;;;;;;6.57;3.17;;;18.90;99.90;;;;;;4969992;28;20023;-73
2023/09/29 08:49:59;;;;;;;7.38;3.30;;;19.00;99.90;;;;;;4968698;28;20106;-73
2023/09/29 08:52:32;;;;;;;7.00;3.00;;;19.10;99.90;;;;;;4972234;28;20129;-78
2023/09/29 08:54:59;;;;;;;6.15;3.47;;;19.10;99.90;;;;;;4978814;28;20034;-78
2023/09/29 08:57:25;;;;;;;7.10;3.17;;;19.20;99.90;;;;;;4978347;28;20039;-79
2023/09/29 08:59:54;;;;;;;8.38;3.42;;;19.30;99.90;;;;;;4984014;28;20035;-78
2023/09/29 09:02:26;;;;;;;7.82;3.33;;;19.40;99.90;;;;;;4998184;28;20539;-79
2023/09/29 09:04:53;;;;;;;6.93;3.38;;;19.50;99.90;;;;;;4982644;28;20054;-79
2023/09/29 09:07:19;;;;;;;6.40;3.60;;;19.50;99.90;;;;;;4977925;28;20176;-78
2023/09/29 09:09:49;;;;;;;7.32;3.10;;;19.60;99.90;;;;;;4980563;28;20019;-78
2023/09/29 09:12:16;;;;;;;7.20;3.17;;;19.70;99.90;;;;;;4997374;28;20126;-78
2023/09/29 09:14:44;;;;;;;5.50;3.53;;;19.70;99.90;;;;;;4980703;28;20041;-78
2023/09/29 09:17:10;;;;;;;6.85;3.50;;;19.70;99.90;;;;;;4986502;28;20046;-79
2023/09/29 09:19:45;;;;;;;5.57;3.08;;;19.80;99.90;;;;;;4974176;28;20046;-80
2023/09/29 09:22:14;;;;;;;5.90;3.10;;;20.00;99.90;;;;;;4973707;28;20031;-79
2023/09/29 09:24:40;;;;;;;5.07;2.75;;;20.00;99.90;;;;;;4990499;28;20022;-79
2023/09/29 09:27:06;;;;;;;7.20;3.10;;;20.10;99.90;;;;;;4971889;28;20856;-79
2023/09/29 09:29:39;;;;;;;5.70;3.25;;;20.20;99.90;;;;;;4975850;28;20405;-79
2023/09/29 09:32:06;;;;;;;8.18;3.30;;;20.30;99.90;;;;;;4974778;28;20019;-80
2023/09/29 09:34:32;;;;;;;7.03;3.00;;;20.40;99.90;;;;;;4990969;28;20038;-78
2023/09/29 09:36:58;;;;;;;7.20;3.53;;;20.60;99.80;;;;;;4976185;28;20097;-78
2023/09/29 09:39:24;;;;;;;9.90;3.85;;;20.60;99.50;;;;;;4991930;28;20030;-79
2023/09/29 09:41:54;;;;;;;5.88;3.33;;;20.80;99.40;;;;;;4976216;28;20026;-78
2023/09/29 09:44:25;;;;;;;8.52;3.60;;;20.80;99.30;;;;;;4977961;28;20019;-78
2023/09/29 09:47:00;;;;;;;7.95;3.55;;;20.90;99.20;;;;;;4977983;28;20078;-79
2023/09/29 09:49:50;;;;;;;8.68;3.90;;;21.00;99.20;;;;;;4978252;28;20099;-81
2023/09/29 09:52:23;;;;;;;7.40;3.60;;;21.20;98.90;;;;;;4978754;28;20030;-80
2023/09/29 09:54:52;;;;;;;7.50;3.05;;;21.40;98.70;;;;;;4975120;28;20026;-80
2023/09/29 09:57:24;;;;;;;5.75;2.65;;;21.50;98.50;;;;;;4973900;28;20046;-80
2023/09/29 09:59:54;;;;;;;7.25;3.08;;;21.50;98.40;;;;;;4990396;28;20098;-79
2023/09/29 10:02:22;;;;;;;6.63;3.72;;;21.60;98.20;;;;;;4976642;28;20054;-80
2023/09/29 10:04:49;;;;;;;7.32;3.33;;;21.70;98.30;;;;;;4990718;28;20494;-79
2023/09/29 10:07:17;;;;;;;8.85;3.72;;;21.80;98.30;;;;;;4976199;28;20022;-79
2023/09/29 10:09:48;;;;;;;6.57;3.08;;;22.00;98.00;;;;;;4975462;28;20038;-79
2023/09/29 10:12:28;;;;;;;7.57;3.00;;;22.10;97.60;;;;;;4976266;28;20031;-79
2023/09/29 10:14:58;;;;;;;6.95;3.47;;;22.30;97.30;;;;;;4971776;28;20030;-79
2023/09/29 10:17:25;;;;;;;6.20;2.75;;;22.30;97.70;;;;;;4975226;28;20046;-80
2023/09/29 10:19:51;;;;;;;6.82;3.00;;;22.50;97.50;;;;;;4974352;28;20081;-80
2023/09/29 10:22:24;;;;;;;6.53;3.15;;;22.60;97.10;;;;;;4990537;28;20512;-81
2023/09/29 10:24:56;;;;;;;;;;;22.70;96.40;;;;;;4974633;28;20023;-80
2023/09/29 10:27:41;;;;;;;5.57;2.78;;;22.90;96.10;;;;;;4974879;28;19914;-79
2023/09/29 10:30:18;;;;;;;7.38;2.67;;;23.00;96.20;;;;;;4975418;28;20034;-80
2023/09/29 10:32:46;;;;;;;4.85;2.15;;;23.10;96.20;;;;;;4976772;28;20041;-79
2023/09/29 10:35:19;;;;;;;4.20;2.53;;;23.40;95.50;;;;;;4991030;28;20494;-78
2023/09/29 10:37:54;;;;;;;9.13;2.40;;;23.50;94.40;;;;;;4983942;28;20026;-78
2023/09/29 10:40:34;;;;;;;4.40;2.35;;;23.80;93.10;;;;;;4971730;28;20027;-78
2023/09/29 10:43:03;;;;;;;3.13;2.25;;;24.00;92.80;;;;;;4970430;28;20030;-77
2023/09/29 10:45:36;;;;;;;3.35;1.95;;;24.20;92.20;;;;;;4975067;28;20019;-78
2023/09/29 10:48:11;;;;;;;8.27;2.72;;;24.30;91.90;;;;;;4992558;28;20109;-80
2023/09/29 10:50:40;;;;;;;5.35;2.03;;;24.50;91.50;;;;;;4975217;28;20029;-77
2023/09/29 10:53:07;;;;;;;6.43;2.38;;;24.60;91.50;;;;;;4970673;28;20031;-77
2023/09/29 10:55:54;;;;;;;5.18;2.40;;;24.70;91.10;;;;;;4971002;28;20485;-76
2023/09/29 10:58:21;;;;;;;4.82;2.65;;;24.90;90.90;;;;;;4968502;28;20049;-77
2023/09/29 11:00:51;;;;;;;4.13;2.10;;;25.00;90.50;;;;;;4971834;28;20035;-77
2023/09/29 11:03:26;;;;;;;2.65;1.92;;;25.10;90.50;;;;;;4972048;28;20397;-77
2023/09/29 11:05:58;;;;;;;4.80;2.60;;;25.20;90.50;;;;;;4987004;28;20553;-77
2023/09/29 11:08:42;;;;;;;3.83;2.03;;;25.20;90.20;;;;;;4986052;28;20035;-77
2023/09/29 11:11:11;;;;;;;5.03;2.33;;;25.30;90.00;;;;;;4971594;28;20026;-77
2023/09/29 11:13:37;;;;;;;3.00;1.92;;;25.30;90.20;;;;;;4986445;28;20031;-77
2023/09/29 11:16:13;;;;;;;5.60;2.40;;;25.30;90.00;;;;;;4974655;28;20023;-77
2023/09/29 11:18:39;;;;;;;3.97;2.33;;;25.40;90.00;;;;;;4971852;28;20038;-77
2023/09/29 11:21:09;;;;;;;3.67;2.20;;;25.40;90.10;;;;;;4972092;28;20390;-77
2023/09/29 11:23:53;;;;;;;4.15;2.17;;;25.50;90.00;;;;;;4972928;28;20023;-77
2023/09/29 11:26:20;;;;;;;;;;;25.60;89.80;;;;;;4973926;28;20030;-77
2023/09/29 11:28:49;;;;;;;6.03;2.55;;;25.60;89.70;;;;;;4973338;28;19991;-77
2023/09/29 11:31:15;;;;;;;8.10;2.70;;;25.70;89.60;;;;;;4989121;28;20059;-77
2023/09/29 11:33:42;;;;;;;5.32;2.30;;;25.80;89.10;;;;;;4971888;28;20441;-77
2023/09/29 11:36:17;;;;;;;5.05;2.67;;;25.80;89.00;;;;;;4974586;28;20133;-77
2023/09/29 11:38:46;;;;;;;3.70;2.15;;;25.90;88.70;;;;;;4971811;28;20089;-77
2023/09/29 11:41:13;;;;;;;5.47;2.50;;;25.90;88.50;;;;;;4974485;28;20047;-77
2023/09/29 11:43:39;;;;;;;4.05;2.10;;;25.90;88.50;;;;;;4975207;28;20055;-77
2023/09/29 11:46:06;;;;;;;4.18;2.42;;;25.90;88.50;;;;;;4974430;28;20023;-77
2023/09/29 11:48:31;;;;;;;5.32;2.55;;;25.90;89.00;;;;;;4973281;28;20544;-77
2023/09/29 11:50:57;;;;;;;3.78;2.40;;;26.00;88.60;;;;;;4970994;28;20023;-77
2023/09/29 11:53:23;;;;;;;3.15;2.38;;;26.00;88.20;;;;;;4971724;28;20058;-77
2023/09/29 11:55:49;;;;;;;4.75;2.30;;;25.90;88.50;;;;;;4970041;28;20391;-77
2023/09/29 11:58:15;;;;;;;3.90;2.53;;;26.00;88.60;;;;;;4970415;28;20034;-77
2023/09/29 12:00:41;;;;;;;4.53;2.42;;;26.00;88.20;;;;;;4970558;28;20034;-77
2023/09/29 12:03:17;;;;;;;5.00;2.65;;;26.00;88.40;;;;;;4988779;28;20022;-77
2023/09/29 12:05:49;;;;;;;5.95;2.55;;;26.00;88.60;;;;;;4971139;28;20505;-77
2023/09/29 12:08:14;;;;;;;4.38;2.78;;;26.10;87.90;;;;;;4988657;28;20023;-77
2023/09/29 12:10:40;;;;;;;6.47;2.90;;;26.10;87.80;;;;;;4972263;28;20038;-77
2023/09/29 12:13:05;;;;;;;7.88;2.25;;;26.10;87.90;;;;;;4970751;28;20062;-77
2023/09/29 12:15:34;;;;;;;4.00;2.78;;;26.00;88.10;;;;;;4970690;28;20061;-77
2023/09/29 12:18:00;;;;;;;7.13;3.35;;;26.00;88.20;;;;;;4971940;28;20734;-78
2023/09/29 12:20:27;;;;;;;4.90;3.00;;;25.90;88.50;;;;;;4974438;28;20019;-78
2023/09/29 12:23:00;;;;;;;4.25;2.38;;;25.90;89.00;;;;;;4973194;28;20022;-78
2023/09/29 12:25:26;;;;;;;6.22;2.72;;;26.00;89.30;;;;;;4977974;28;20438;-78
2023/09/29 12:27:58;;;;;;;3.28;2.20;;;26.00;89.30;;;;;;4995396;28;20026;-78
2023/09/29 12:30:28;;;;;;;4.47;2.85;;;26.00;89.10;;;;;;4979123;28;20093;-80
2023/09/29 12:32:54;;;;;;;3.05;2.20;;;26.10;88.90;;;;;;4995703;28;20526;-76
2023/09/29 12:35:20;;;;;;;4.22;2.40;;;26.10;89.30;;;;;;4979016;28;20520;-78
2023/09/29 12:37:46;;;;;;;5.28;2.47;;;26.20;88.70;;;;;;4974690;28;20110;-77
2023/09/29 12:40:14;;;;;;;5.20;3.20;;;26.20;88.90;;;;;;4975869;28;20393;-75
2023/09/29 12:42:47;;;;;;;6.40;3.20;;;26.30;88.70;;;;;;4973687;28;20109;-76
2023/09/29 12:45:14;;;;;;;5.18;2.72;;;26.20;88.70;;;;;;4974720;28;20015;-77
2023/09/29 12:47:41;;;;;;;5.35;2.50;;;26.20;88.70;;;;;;4977306;28;20073;-76
2023/09/29 12:50:17;;;;;;;3.28;2.45;;;26.10;89.00;;;;;;4971891;28;20355;-75
2023/09/29 12:52:44;;;;;;;6.47;2.67;;;26.10;89.00;;;;;;4987763;28;20038;-76
2023/09/29 12:55:15;;;;;;;5.75;2.30;;;26.10;89.40;;;;;;4973957;28;20034;-75
2023/09/29 12:57:43;;;;;;;4.20;2.50;;;26.00;89.60;;;;;;4972820;28;20105;-75